sensor_id;sensor_type;location;lat;lon;timestamp;P1;durP1;ratioP1;P2;durP2;ratioP2
8279;SDS011;8335;42.646;23.380;2023-05-09T00:00:54;4.63;;;3.90;;
8279;SDS011;8335;42.646;23.380;2023-05-09T00:03:22;5.57;;;4.00;;
8279;SDS011;8335;42.646;23.380;2023-05-09T00:05:49;5.10;;;4.17;;
8279;SDS011;8335;42.646;23.380;2023-05-09T00:08:16;5.00;;;3.83;;
8279;SDS011;8335;42.646;23.380;2023-05-09T00:10:43;4.30;;;3.80;;
8279;SDS011;8335;42.646;23.380;2023-05-09T00:13:10;4.77;;;3.73;;
8279;SDS011;8335;42.646;23.380;2023-05-09T00:15:38;5.03;;;4.43;;
8279;SDS011;8335;42.646;23.380;2023-05-09T00:18:05;4.30;;;3.90;;
8279;SDS011;8335;42.646;23.380;2023-05-09T00:20:33;5.60;;;4.40;;
8279;SDS011;8335;42.646;23.380;2023-05-09T00:23:00;4.57;;;3.70;;
8279;SDS011;8335;42.646;23.380;2023-05-09T00:25:27;4.80;;;4.13;;
8279;SDS011;8335;42.646;23.380;2023-05-09T00:27:53;5.47;;;4.00;;
8279;SDS011;8335;42.646;23.380;2023-05-09T00:30:20;4.60;;;4.20;;
8279;SDS011;8335;42.646;23.380;2023-05-09T00:32:48;4.73;;;4.03;;
8279;SDS011;8335;42.646;23.380;2023-05-09T00:35:14;4.73;;;4.00;;
8279;SDS011;8335;42.646;23.380;2023-05-09T00:37:42;5.47;;;3.93;;
8279;SDS011;8335;42.646;23.380;2023-05-09T00:40:10;6.43;;;3.97;;
8279;SDS011;8335;42.646;23.380;2023-05-09T00:42:37;5.23;;;4.23;;
8279;SDS011;8335;42.646;23.380;2023-05-09T00:45:04;5.53;;;4.23;;
8279;SDS011;8335;42.646;23.380;2023-05-09T00:47:32;4.83;;;3.97;;
8279;SDS011;8335;42.646;23.380;2023-05-09T00:50:00;6.33;;;4.37;;
8279;SDS011;8335;42.646;23.380;2023-05-09T00:52:27;5.30;;;4.47;;
8279;SDS011;8335;42.646;23.380;2023-05-09T00:54:57;6.33;;;4.40;;
8279;SDS011;8335;42.646;23.380;2023-05-09T00:57:25;6.33;;;4.20;;
8279;SDS011;8335;42.646;23.380;2023-05-09T00:59:51;5.27;;;4.43;;
8279;SDS011;8335;42.646;23.380;2023-05-09T01:02:18;6.37;;;4.97;;
8279;SDS011;8335;42.646;23.380;2023-05-09T01:04:45;6.03;;;4.53;;
8279;SDS011;8335;42.646;23.380;2023-05-09T01:07:15;4.77;;;4.30;;
8279;SDS011;8335;42.646;23.380;2023-05-09T01:09:49;6.70;;;4.87;;
8279;SDS011;8335;42.646;23.380;2023-05-09T01:12:29;4.90;;;4.40;;
8279;SDS011;8335;42.646;23.380;2023-05-09T01:15:01;6.80;;;4.40;;
8279;SDS011;8335;42.646;23.380;2023-05-09T01:17:37;6.73;;;4.67;;
8279;SDS011;8335;42.646;23.380;2023-05-09T01:20:13;6.73;;;4.70;;
8279;SDS011;8335;42.646;23.380;2023-05-09T01:22:47;7.00;;;4.57;;
8279;SDS011;8335;42.646;23.380;2023-05-09T01:28:24;5.47;;;4.37;;
8279;SDS011;8335;42.646;23.380;2023-05-09T01:31:01;5.57;;;4.63;;
8279;SDS011;8335;42.646;23.380;2023-05-09T01:33:31;5.67;;;4.50;;
8279;SDS011;8335;42.646;23.380;2023-05-09T01:36:03;4.93;;;4.43;;
8279;SDS011;8335;42.646;23.380;2023-05-09T01:38:33;4.80;;;4.03;;
8279;SDS011;8335;42.646;23.380;2023-05-09T01:41:02;6.20;;;4.53;;
8279;SDS011;8335;42.646;23.380;2023-05-09T01:43:30;4.73;;;3.80;;
8279;SDS011;8335;42.646;23.380;2023-05-09T01:45:58;5.27;;;4.50;;
8279;SDS011;8335;42.646;23.380;2023-05-09T01:48:28;6.23;;;4.63;;
8279;SDS011;8335;42.646;23.380;2023-05-09T01:50:57;5.43;;;4.00;;
8279;SDS011;8335;42.646;23.380;2023-05-09T01:53:24;4.53;;;4.10;;
8279;SDS011;8335;42.646;23.380;2023-05-09T01:55:54;6.30;;;4.30;;
8279;SDS011;8335;42.646;23.380;2023-05-09T01:58:23;4.93;;;4.43;;
8279;SDS011;8335;42.646;23.380;2023-05-09T02:00:52;6.17;;;4.30;;
8279;SDS011;8335;42.646;23.380;2023-05-09T02:03:19;5.87;;;4.37;;
8279;SDS011;8335;42.646;23.380;2023-05-09T02:05:48;4.90;;;4.30;;
8279;SDS011;8335;42.646;23.380;2023-05-09T02:08:15;5.00;;;4.50;;
8279;SDS011;8335;42.646;23.380;2023-05-09T02:10:45;5.57;;;4.40;;
8279;SDS011;8335;42.646;23.380;2023-05-09T02:13:13;6.63;;;4.43;;
8279;SDS011;8335;42.646;23.380;2023-05-09T02:15:40;5.93;;;4.40;;
8279;SDS011;8335;42.646;23.380;2023-05-09T02:18:08;7.97;;;4.63;;
8279;SDS011;8335;42.646;23.380;2023-05-09T02:20:35;6.20;;;4.53;;
8279;SDS011;8335;42.646;23.380;2023-05-09T02:23:03;5.90;;;4.60;;
8279;SDS011;8335;42.646;23.380;2023-05-09T02:25:30;6.13;;;4.47;;
8279;SDS011;8335;42.646;23.380;2023-05-09T02:27:58;5.73;;;4.63;;
8279;SDS011;8335;42.646;23.380;2023-05-09T02:30:27;4.90;;;4.33;;
8279;SDS011;8335;42.646;23.380;2023-05-09T02:33:01;4.73;;;4.27;;
8279;SDS011;8335;42.646;23.380;2023-05-09T02:35:31;4.83;;;4.23;;
8279;SDS011;8335;42.646;23.380;2023-05-09T02:37:58;5.43;;;4.77;;
8279;SDS011;8335;42.646;23.380;2023-05-09T02:40:27;6.27;;;4.63;;
8279;SDS011;8335;42.646;23.380;2023-05-09T02:42:55;4.57;;;4.17;;
8279;SDS011;8335;42.646;23.380;2023-05-09T02:45:22;4.83;;;4.33;;
8279;SDS011;8335;42.646;23.380;2023-05-09T02:47:49;6.20;;;4.80;;
8279;SDS011;8335;42.646;23.380;2023-05-09T02:50:16;7.30;;;4.70;;
8279;SDS011;8335;42.646;23.380;2023-05-09T02:52:42;8.03;;;5.10;;
8279;SDS011;8335;42.646;23.380;2023-05-09T02:55:10;5.30;;;4.67;;
8279;SDS011;8335;42.646;23.380;2023-05-09T02:57:38;7.67;;;5.10;;
8279;SDS011;8335;42.646;23.380;2023-05-09T03:00:05;5.83;;;5.20;;
8279;SDS011;8335;42.646;23.380;2023-05-09T03:02:33;6.03;;;5.20;;
8279;SDS011;8335;42.646;23.380;2023-05-09T03:05:00;5.90;;;5.13;;
8279;SDS011;8335;42.646;23.380;2023-05-09T03:07:27;6.20;;;5.60;;
8279;SDS011;8335;42.646;23.380;2023-05-09T03:09:54;7.40;;;5.57;;
8279;SDS011;8335;42.646;23.380;2023-05-09T03:12:21;10.50;;;5.00;;
8279;SDS011;8335;42.646;23.380;2023-05-09T03:14:49;6.23;;;5.40;;
8279;SDS011;8335;42.646;23.380;2023-05-09T03:17:16;7.93;;;4.87;;
8279;SDS011;8335;42.646;23.380;2023-05-09T03:19:45;6.57;;;4.97;;
8279;SDS011;8335;42.646;23.380;2023-05-09T03:22:12;8.23;;;5.57;;
8279;SDS011;8335;42.646;23.380;2023-05-09T03:24:39;6.20;;;5.57;;
8279;SDS011;8335;42.646;23.380;2023-05-09T03:27:06;6.63;;;5.70;;
8279;SDS011;8335;42.646;23.380;2023-05-09T03:29:32;7.30;;;6.47;;
8279;SDS011;8335;42.646;23.380;2023-05-09T03:32:00;8.03;;;5.90;;
8279;SDS011;8335;42.646;23.380;2023-05-09T03:34:27;8.90;;;6.40;;
8279;SDS011;8335;42.646;23.380;2023-05-09T03:36:54;6.97;;;6.23;;
8279;SDS011;8335;42.646;23.380;2023-05-09T03:39:21;8.33;;;6.30;;
8279;SDS011;8335;42.646;23.380;2023-05-09T03:41:48;8.50;;;7.00;;
8279;SDS011;8335;42.646;23.380;2023-05-09T03:44:14;7.23;;;6.33;;
8279;SDS011;8335;42.646;23.380;2023-05-09T03:46:41;7.93;;;6.50;;
8279;SDS011;8335;42.646;23.380;2023-05-09T03:49:09;7.03;;;6.33;;
8279;SDS011;8335;42.646;23.380;2023-05-09T03:51:37;7.83;;;6.30;;
8279;SDS011;8335;42.646;23.380;2023-05-09T03:54:04;8.57;;;6.63;;
8279;SDS011;8335;42.646;23.380;2023-05-09T03:56:31;8.67;;;6.60;;
8279;SDS011;8335;42.646;23.380;2023-05-09T03:58:58;9.33;;;6.60;;
8279;SDS011;8335;42.646;23.380;2023-05-09T04:01:24;9.33;;;6.47;;
8279;SDS011;8335;42.646;23.380;2023-05-09T04:03:51;10.83;;;7.20;;
8279;SDS011;8335;42.646;23.380;2023-05-09T04:06:20;6.93;;;6.13;;
8279;SDS011;8335;42.646;23.380;2023-05-09T04:08:46;8.13;;;6.27;;
8279;SDS011;8335;42.646;23.380;2023-05-09T04:11:13;6.40;;;5.53;;
8279;SDS011;8335;42.646;23.380;2023-05-09T04:13:40;7.37;;;5.40;;
8279;SDS011;8335;42.646;23.380;2023-05-09T04:16:07;5.87;;;5.00;;
8279;SDS011;8335;42.646;23.380;2023-05-09T04:18:34;6.45;;;4.85;;
8279;SDS011;8335;42.646;23.380;2023-05-09T04:21:04;7.10;;;4.45;;
8279;SDS011;8335;42.646;23.380;2023-05-09T04:23:32;5.85;;;4.93;;
8279;SDS011;8335;42.646;23.380;2023-05-09T04:25:58;5.28;;;4.75;;
8279;SDS011;8335;42.646;23.380;2023-05-09T04:28:25;6.55;;;4.82;;
8279;SDS011;8335;42.646;23.380;2023-05-09T04:30:52;5.15;;;4.35;;
8279;SDS011;8335;42.646;23.380;2023-05-09T04:33:19;6.40;;;4.47;;
8279;SDS011;8335;42.646;23.380;2023-05-09T04:35:48;6.28;;;4.25;;
8279;SDS011;8335;42.646;23.380;2023-05-09T04:38:15;4.72;;;4.25;;
8279;SDS011;8335;42.646;23.380;2023-05-09T04:40:43;4.97;;;3.75;;
8279;SDS011;8335;42.646;23.380;2023-05-09T04:43:10;6.15;;;4.13;;
8279;SDS011;8335;42.646;23.380;2023-05-09T04:45:37;4.75;;;3.78;;
8279;SDS011;8335;42.646;23.380;2023-05-09T04:48:03;6.90;;;3.65;;
8279;SDS011;8335;42.646;23.380;2023-05-09T04:50:30;5.15;;;3.67;;
8279;SDS011;8335;42.646;23.380;2023-05-09T04:52:57;5.78;;;3.78;;
8279;SDS011;8335;42.646;23.380;2023-05-09T04:55:24;4.38;;;3.50;;
8279;SDS011;8335;42.646;23.380;2023-05-09T04:57:52;4.28;;;3.58;;
8279;SDS011;8335;42.646;23.380;2023-05-09T05:00:19;4.25;;;3.45;;
8279;SDS011;8335;42.646;23.380;2023-05-09T05:02:46;4.32;;;3.70;;
8279;SDS011;8335;42.646;23.380;2023-05-09T05:05:12;6.22;;;4.28;;
8279;SDS011;8335;42.646;23.380;2023-05-09T05:07:39;3.50;;;3.17;;
8279;SDS011;8335;42.646;23.380;2023-05-09T05:10:06;6.50;;;3.78;;
8279;SDS011;8335;42.646;23.380;2023-05-09T05:12:34;4.63;;;3.42;;
8279;SDS011;8335;42.646;23.380;2023-05-09T05:15:02;5.32;;;3.40;;
8279;SDS011;8335;42.646;23.380;2023-05-09T05:17:30;3.28;;;2.97;;
8279;SDS011;8335;42.646;23.380;2023-05-09T05:19:56;3.47;;;2.78;;
8279;SDS011;8335;42.646;23.380;2023-05-09T05:22:23;4.97;;;2.60;;
8279;SDS011;8335;42.646;23.380;2023-05-09T05:24:50;3.15;;;2.78;;
8279;SDS011;8335;42.646;23.380;2023-05-09T05:27:17;4.43;;;2.40;;
8279;SDS011;8335;42.646;23.380;2023-05-09T05:29:43;3.05;;;2.40;;
8279;SDS011;8335;42.646;23.380;2023-05-09T05:32:11;2.33;;;2.10;;
8279;SDS011;8335;42.646;23.380;2023-05-09T05:34:38;2.20;;;2.00;;
8279;SDS011;8335;42.646;23.380;2023-05-09T05:37:05;6.18;;;2.22;;
8279;SDS011;8335;42.646;23.380;2023-05-09T05:39:32;3.78;;;2.30;;
8279;SDS011;8335;42.646;23.380;2023-05-09T05:41:58;2.70;;;2.00;;
8279;SDS011;8335;42.646;23.380;2023-05-09T05:44:25;2.63;;;2.30;;
8279;SDS011;8335;42.646;23.380;2023-05-09T05:46:52;3.77;;;2.23;;
8279;SDS011;8335;42.646;23.380;2023-05-09T05:49:20;3.30;;;2.10;;
8279;SDS011;8335;42.646;23.380;2023-05-09T05:51:49;2.33;;;2.13;;
8279;SDS011;8335;42.646;23.380;2023-05-09T05:54:16;2.10;;;1.90;;
8279;SDS011;8335;42.646;23.380;2023-05-09T05:56:43;2.20;;;1.87;;
8279;SDS011;8335;42.646;23.380;2023-05-09T05:59:09;5.20;;;1.90;;
8279;SDS011;8335;42.646;23.380;2023-05-09T06:01:36;4.80;;;2.30;;
8279;SDS011;8335;42.646;23.380;2023-05-09T06:04:03;3.03;;;2.00;;
8279;SDS011;8335;42.646;23.380;2023-05-09T06:06:31;2.07;;;1.80;;
8279;SDS011;8335;42.646;23.380;2023-05-09T06:08:58;2.27;;;1.40;;
8279;SDS011;8335;42.646;23.380;2023-05-09T06:11:25;2.80;;;1.70;;
8279;SDS011;8335;42.646;23.380;2023-05-09T06:13:52;3.17;;;1.70;;
8279;SDS011;8335;42.646;23.380;2023-05-09T06:16:18;2.17;;;1.60;;
8279;SDS011;8335;42.646;23.380;2023-05-09T06:18:46;3.97;;;1.60;;
8279;SDS011;8335;42.646;23.380;2023-05-09T06:21:13;1.33;;;1.23;;
8279;SDS011;8335;42.646;23.380;2023-05-09T06:23:41;1.50;;;1.40;;
8279;SDS011;8335;42.646;23.380;2023-05-09T06:26:07;3.63;;;1.47;;
8279;SDS011;8335;42.646;23.380;2023-05-09T06:28:34;1.80;;;1.30;;
8279;SDS011;8335;42.646;23.380;2023-05-09T06:31:01;1.23;;;1.13;;
8279;SDS011;8335;42.646;23.380;2023-05-09T06:33:28;2.63;;;1.30;;
8279;SDS011;8335;42.646;23.380;2023-05-09T06:35:55;1.20;;;1.10;;
8279;SDS011;8335;42.646;23.380;2023-05-09T06:38:21;2.83;;;1.20;;
8279;SDS011;8335;42.646;23.380;2023-05-09T06:40:50;5.17;;;1.37;;
8279;SDS011;8335;42.646;23.380;2023-05-09T06:43:16;1.73;;;1.40;;
8279;SDS011;8335;42.646;23.380;2023-05-09T06:45:43;1.37;;;1.20;;
8279;SDS011;8335;42.646;23.380;2023-05-09T06:48:10;1.33;;;1.23;;
8279;SDS011;8335;42.646;23.380;2023-05-09T06:50:37;2.80;;;1.53;;
8279;SDS011;8335;42.646;23.380;2023-05-09T06:53:04;2.13;;;1.10;;
8279;SDS011;8335;42.646;23.380;2023-05-09T06:55:31;1.57;;;1.27;;
8279;SDS011;8335;42.646;23.380;2023-05-09T06:57:59;2.67;;;1.47;;
8279;SDS011;8335;42.646;23.380;2023-05-09T07:00:26;3.23;;;1.40;;
8279;SDS011;8335;42.646;23.380;2023-05-09T07:02:53;1.87;;;1.40;;
8279;SDS011;8335;42.646;23.380;2023-05-09T07:05:27;1.63;;;1.53;;
8279;SDS011;8335;42.646;23.380;2023-05-09T07:07:54;3.63;;;1.63;;
8279;SDS011;8335;42.646;23.380;2023-05-09T07:10:21;1.90;;;1.60;;
8279;SDS011;8335;42.646;23.380;2023-05-09T07:12:48;5.07;;;1.57;;
8279;SDS011;8335;42.646;23.380;2023-05-09T07:15:15;1.87;;;1.77;;
8279;SDS011;8335;42.646;23.380;2023-05-09T07:17:42;2.00;;;1.80;;
8279;SDS011;8335;42.646;23.380;2023-05-09T07:20:09;2.40;;;1.90;;
8279;SDS011;8335;42.646;23.380;2023-05-09T07:22:37;2.50;;;2.20;;
8279;SDS011;8335;42.646;23.380;2023-05-09T07:25:05;2.20;;;1.93;;
8279;SDS011;8335;42.646;23.380;2023-05-09T07:27:33;2.37;;;1.83;;
8279;SDS011;8335;42.646;23.380;2023-05-09T07:30:00;2.97;;;1.80;;
8279;SDS011;8335;42.646;23.380;2023-05-09T07:32:26;3.23;;;2.40;;
8279;SDS011;8335;42.646;23.380;2023-05-09T07:34:53;1.97;;;1.83;;
8279;SDS011;8335;42.646;23.380;2023-05-09T07:37:20;2.13;;;1.93;;
8279;SDS011;8335;42.646;23.380;2023-05-09T07:39:48;2.43;;;1.97;;
8279;SDS011;8335;42.646;23.380;2023-05-09T07:42:16;2.00;;;1.80;;
8279;SDS011;8335;42.646;23.380;2023-05-09T07:44:42;4.77;;;1.50;;
8279;SDS011;8335;42.646;23.380;2023-05-09T07:47:09;2.63;;;1.40;;
8279;SDS011;8335;42.646;23.380;2023-05-09T07:49:36;1.97;;;1.47;;
8279;SDS011;8335;42.646;23.380;2023-05-09T07:52:04;3.27;;;1.43;;
8279;SDS011;8335;42.646;23.380;2023-05-09T07:54:31;4.33;;;1.70;;
8279;SDS011;8335;42.646;23.380;2023-05-09T07:56:59;3.20;;;1.60;;
8279;SDS011;8335;42.646;23.380;2023-05-09T07:59:25;2.10;;;1.93;;
8279;SDS011;8335;42.646;23.380;2023-05-09T08:01:52;3.70;;;1.50;;
8279;SDS011;8335;42.646;23.380;2023-05-09T08:04:19;1.90;;;1.43;;
8279;SDS011;8335;42.646;23.380;2023-05-09T08:06:46;3.90;;;1.93;;
8279;SDS011;8335;42.646;23.380;2023-05-09T08:09:13;1.60;;;1.50;;
8279;SDS011;8335;42.646;23.380;2023-05-09T08:11:39;1.70;;;1.50;;
8279;SDS011;8335;42.646;23.380;2023-05-09T08:14:08;1.60;;;1.50;;
8279;SDS011;8335;42.646;23.380;2023-05-09T08:16:34;2.10;;;1.50;;
8279;SDS011;8335;42.646;23.380;2023-05-09T08:19:01;1.50;;;1.40;;
8279;SDS011;8335;42.646;23.380;2023-05-09T08:21:28;1.92;;;1.40;;
8279;SDS011;8335;42.646;23.380;2023-05-09T08:23:55;3.28;;;1.58;;
8279;SDS011;8335;42.646;23.380;2023-05-09T08:26:22;1.50;;;1.38;;
8279;SDS011;8335;42.646;23.380;2023-05-09T08:28:48;1.38;;;1.25;;
8279;SDS011;8335;42.646;23.380;2023-05-09T08:31:16;1.75;;;1.27;;
8279;SDS011;8335;42.646;23.380;2023-05-09T08:33:43;1.42;;;1.30;;
8279;SDS011;8335;42.646;23.380;2023-05-09T08:36:10;1.42;;;1.33;;
8279;SDS011;8335;42.646;23.380;2023-05-09T08:38:37;3.35;;;1.30;;
8279;SDS011;8335;42.646;23.380;2023-05-09T08:41:04;1.50;;;1.40;;
8279;SDS011;8335;42.646;23.380;2023-05-09T08:43:32;2.20;;;1.30;;
8279;SDS011;8335;42.646;23.380;2023-05-09T08:45:59;2.75;;;1.40;;
8279;SDS011;8335;42.646;23.380;2023-05-09T08:48:32;1.60;;;1.23;;
8279;SDS011;8335;42.646;23.380;2023-05-09T08:51:01;1.83;;;1.48;;
8279;SDS011;8335;42.646;23.380;2023-05-09T08:53:28;2.10;;;1.67;;
8279;SDS011;8335;42.646;23.380;2023-05-09T08:55:56;1.65;;;1.50;;
8279;SDS011;8335;42.646;23.380;2023-05-09T08:58:24;1.67;;;1.58;;
8279;SDS011;8335;42.646;23.380;2023-05-09T09:00:51;1.35;;;1.25;;
8279;SDS011;8335;42.646;23.380;2023-05-09T09:03:19;1.73;;;1.63;;
8279;SDS011;8335;42.646;23.380;2023-05-09T09:05:47;2.60;;;1.25;;
8279;SDS011;8335;42.646;23.380;2023-05-09T09:08:16;1.83;;;1.60;;
8279;SDS011;8335;42.646;23.380;2023-05-09T09:10:44;2.20;;;1.40;;
8279;SDS011;8335;42.646;23.380;2023-05-09T09:13:12;1.70;;;1.57;;
8279;SDS011;8335;42.646;23.380;2023-05-09T09:15:41;3.97;;;1.60;;
8279;SDS011;8335;42.646;23.380;2023-05-09T09:18:10;3.80;;;1.60;;
8279;SDS011;8335;42.646;23.380;2023-05-09T09:20:44;4.27;;;1.63;;
8279;SDS011;8335;42.646;23.380;2023-05-09T09:23:15;1.87;;;1.60;;
8279;SDS011;8335;42.646;23.380;2023-05-09T09:25:44;4.20;;;1.80;;
8279;SDS011;8335;42.646;23.380;2023-05-09T09:28:11;1.70;;;1.60;;
8279;SDS011;8335;42.646;23.380;2023-05-09T09:30:42;3.53;;;1.80;;
8279;SDS011;8335;42.646;23.380;2023-05-09T09:33:12;3.90;;;1.80;;
8279;SDS011;8335;42.646;23.380;2023-05-09T09:35:44;1.90;;;1.80;;
8279;SDS011;8335;42.646;23.380;2023-05-09T09:38:15;6.47;;;1.90;;
8279;SDS011;8335;42.646;23.380;2023-05-09T09:40:47;2.10;;;1.90;;
8279;SDS011;8335;42.646;23.380;2023-05-09T09:43:14;2.50;;;1.70;;
8279;SDS011;8335;42.646;23.380;2023-05-09T09:45:41;3.87;;;1.97;;
8279;SDS011;8335;42.646;23.380;2023-05-09T09:48:08;2.00;;;1.80;;
8279;SDS011;8335;42.646;23.380;2023-05-09T09:50:35;2.00;;;1.80;;
8279;SDS011;8335;42.646;23.380;2023-05-09T09:53:01;2.43;;;1.70;;
8279;SDS011;8335;42.646;23.380;2023-05-09T09:55:30;2.20;;;2.00;;
8279;SDS011;8335;42.646;23.380;2023-05-09T09:57:57;2.10;;;1.90;;
8279;SDS011;8335;42.646;23.380;2023-05-09T10:00:25;2.65;;;1.80;;
8279;SDS011;8335;42.646;23.380;2023-05-09T10:02:53;4.13;;;1.87;;
8279;SDS011;8335;42.646;23.380;2023-05-09T10:05:21;5.28;;;1.60;;
8279;SDS011;8335;42.646;23.380;2023-05-09T10:07:49;2.25;;;2.05;;
8279;SDS011;8335;42.646;23.380;2023-05-09T10:10:18;1.98;;;1.77;;
8279;SDS011;8335;42.646;23.380;2023-05-09T10:12:46;6.28;;;2.10;;
8279;SDS011;8335;42.646;23.380;2023-05-09T10:15:16;2.65;;;1.77;;
8279;SDS011;8335;42.646;23.380;2023-05-09T10:17:45;2.13;;;1.92;;
8279;SDS011;8335;42.646;23.380;2023-05-09T10:20:12;3.47;;;1.73;;
8279;SDS011;8335;42.646;23.380;2023-05-09T10:22:40;1.80;;;1.70;;
8279;SDS011;8335;42.646;23.380;2023-05-09T10:25:09;2.33;;;2.13;;
8279;SDS011;8335;42.646;23.380;2023-05-09T10:27:43;2.10;;;1.90;;
8279;SDS011;8335;42.646;23.380;2023-05-09T10:30:14;1.90;;;1.77;;
8279;SDS011;8335;42.646;23.380;2023-05-09T10:32:46;3.00;;;2.40;;
8279;SDS011;8335;42.646;23.380;2023-05-09T10:35:18;4.53;;;2.67;;
8279;SDS011;8335;42.646;23.380;2023-05-09T10:37:48;2.53;;;2.33;;
8279;SDS011;8335;42.646;23.380;2023-05-09T10:40:15;3.40;;;2.23;;
8279;SDS011;8335;42.646;23.380;2023-05-09T10:42:45;3.63;;;2.10;;
8279;SDS011;8335;42.646;23.380;2023-05-09T10:45:13;4.13;;;2.20;;
8279;SDS011;8335;42.646;23.380;2023-05-09T10:47:40;2.33;;;2.13;;
8279;SDS011;8335;42.646;23.380;2023-05-09T10:50:09;4.47;;;2.10;;
8279;SDS011;8335;42.646;23.380;2023-05-09T10:55:38;3.80;;;2.30;;
8279;SDS011;8335;42.646;23.380;2023-05-09T10:58:20;3.70;;;2.57;;
8279;SDS011;8335;42.646;23.380;2023-05-09T11:00:49;2.83;;;2.63;;
8279;SDS011;8335;42.646;23.380;2023-05-09T11:03:17;2.80;;;2.60;;
8279;SDS011;8335;42.646;23.380;2023-05-09T11:05:44;2.80;;;2.60;;
8279;SDS011;8335;42.646;23.380;2023-05-09T11:08:19;3.47;;;2.70;;
8279;SDS011;8335;42.646;23.380;2023-05-09T11:10:47;3.07;;;2.47;;
8279;SDS011;8335;42.646;23.380;2023-05-09T11:13:17;3.80;;;2.73;;
8279;SDS011;8335;42.646;23.380;2023-05-09T11:18:51;2.80;;;2.50;;
8279;SDS011;8335;42.646;23.380;2023-05-09T11:21:18;3.13;;;2.80;;
8279;SDS011;8335;42.646;23.380;2023-05-09T11:23:46;3.30;;;2.90;;
8279;SDS011;8335;42.646;23.380;2023-05-09T11:26:14;5.20;;;3.50;;
8279;SDS011;8335;42.646;23.380;2023-05-09T11:28:41;4.60;;;3.10;;
8279;SDS011;8335;42.646;23.380;2023-05-09T11:31:17;3.63;;;2.60;;
8279;SDS011;8335;42.646;23.380;2023-05-09T11:33:45;4.40;;;2.73;;
8279;SDS011;8335;42.646;23.380;2023-05-09T11:36:21;3.13;;;2.83;;
8279;SDS011;8335;42.646;23.380;2023-05-09T11:38:59;3.10;;;2.80;;
8279;SDS011;8335;42.646;23.380;2023-05-09T11:41:28;3.53;;;3.23;;
8279;SDS011;8335;42.646;23.380;2023-05-09T11:43:55;3.63;;;3.00;;
8279;SDS011;8335;42.646;23.380;2023-05-09T11:46:23;3.20;;;2.90;;
8279;SDS011;8335;42.646;23.380;2023-05-09T11:48:50;6.07;;;3.40;;
8279;SDS011;8335;42.646;23.380;2023-05-09T11:51:18;4.27;;;3.33;;
8279;SDS011;8335;42.646;23.380;2023-05-09T11:53:49;4.03;;;3.30;;
8279;SDS011;8335;42.646;23.380;2023-05-09T11:56:18;4.13;;;3.10;;
8279;SDS011;8335;42.646;23.380;2023-05-09T11:58:48;5.67;;;3.37;;
8279;SDS011;8335;42.646;23.380;2023-05-09T12:01:16;5.60;;;3.77;;
8279;SDS011;8335;42.646;23.380;2023-05-09T12:03:43;8.27;;;3.93;;
8279;SDS011;8335;42.646;23.380;2023-05-09T12:06:13;4.77;;;3.60;;
8279;SDS011;8335;42.646;23.380;2023-05-09T12:08:41;5.63;;;3.27;;
8279;SDS011;8335;42.646;23.380;2023-05-09T12:11:10;4.70;;;3.40;;
8279;SDS011;8335;42.646;23.380;2023-05-09T12:13:43;5.00;;;3.60;;
8279;SDS011;8335;42.646;23.380;2023-05-09T12:16:11;5.73;;;3.90;;
8279;SDS011;8335;42.646;23.380;2023-05-09T12:18:38;3.77;;;3.37;;
8279;SDS011;8335;42.646;23.380;2023-05-09T12:21:09;5.83;;;3.30;;
8279;SDS011;8335;42.646;23.380;2023-05-09T12:23:36;4.20;;;3.63;;
8279;SDS011;8335;42.646;23.380;2023-05-09T12:26:03;5.50;;;3.47;;
8279;SDS011;8335;42.646;23.380;2023-05-09T12:28:32;3.70;;;3.13;;
8279;SDS011;8335;42.646;23.380;2023-05-09T12:31:00;6.40;;;3.30;;
8279;SDS011;8335;42.646;23.380;2023-05-09T12:33:28;3.60;;;3.23;;
8279;SDS011;8335;42.646;23.380;2023-05-09T12:36:02;4.87;;;3.43;;
8279;SDS011;8335;42.646;23.380;2023-05-09T12:38:30;3.63;;;3.30;;
8279;SDS011;8335;42.646;23.380;2023-05-09T12:41:01;6.83;;;3.33;;
8279;SDS011;8335;42.646;23.380;2023-05-09T12:43:29;4.83;;;3.23;;
8279;SDS011;8335;42.646;23.380;2023-05-09T12:45:58;3.47;;;3.10;;
8279;SDS011;8335;42.646;23.380;2023-05-09T12:48:26;6.57;;;3.23;;
8279;SDS011;8335;42.646;23.380;2023-05-09T12:50:54;4.97;;;3.30;;
8279;SDS011;8335;42.646;23.380;2023-05-09T12:53:24;6.63;;;4.00;;
8279;SDS011;8335;42.646;23.380;2023-05-09T12:55:55;10.10;;;4.03;;
8279;SDS011;8335;42.646;23.380;2023-05-09T12:58:28;5.53;;;3.30;;
8279;SDS011;8335;42.646;23.380;2023-05-09T13:00:55;5.27;;;3.67;;
8279;SDS011;8335;42.646;23.380;2023-05-09T13:03:24;4.03;;;3.37;;
8279;SDS011;8335;42.646;23.380;2023-05-09T13:05:55;4.30;;;3.00;;
8279;SDS011;8335;42.646;23.380;2023-05-09T13:08:22;5.00;;;3.47;;
8279;SDS011;8335;42.646;23.380;2023-05-09T13:10:49;5.50;;;4.50;;
8279;SDS011;8335;42.646;23.380;2023-05-09T13:13:17;4.30;;;3.50;;
8279;SDS011;8335;42.646;23.380;2023-05-09T13:15:44;4.93;;;3.80;;
8279;SDS011;8335;42.646;23.380;2023-05-09T13:18:13;3.57;;;3.23;;
8279;SDS011;8335;42.646;23.380;2023-05-09T13:20:39;7.83;;;3.33;;
8279;SDS011;8335;42.646;23.380;2023-05-09T13:23:06;3.70;;;3.00;;
8279;SDS011;8335;42.646;23.380;2023-05-09T13:25:33;3.83;;;3.40;;
8279;SDS011;8335;42.646;23.380;2023-05-09T13:28:00;5.37;;;4.53;;
8279;SDS011;8335;42.646;23.380;2023-05-09T13:30:27;4.00;;;3.60;;
8279;SDS011;8335;42.646;23.380;2023-05-09T13:32:54;3.33;;;3.03;;
8279;SDS011;8335;42.646;23.380;2023-05-09T13:35:22;7.60;;;3.60;;
8279;SDS011;8335;42.646;23.380;2023-05-09T13:37:49;3.77;;;3.33;;
8279;SDS011;8335;42.646;23.380;2023-05-09T13:40:16;5.43;;;3.43;;
8279;SDS011;8335;42.646;23.380;2023-05-09T13:42:43;4.37;;;3.20;;
8279;SDS011;8335;42.646;23.380;2023-05-09T13:45:10;4.33;;;3.13;;
8279;SDS011;8335;42.646;23.380;2023-05-09T13:47:37;3.87;;;3.27;;
8279;SDS011;8335;42.646;23.380;2023-05-09T13:50:04;4.47;;;3.10;;
8279;SDS011;8335;42.646;23.380;2023-05-09T13:52:33;4.20;;;3.50;;
8279;SDS011;8335;42.646;23.380;2023-05-09T13:55:00;3.53;;;3.13;;
8279;SDS011;8335;42.646;23.380;2023-05-09T13:57:27;5.00;;;3.43;;
8279;SDS011;8335;42.646;23.380;2023-05-09T13:59:54;3.83;;;3.23;;
8279;SDS011;8335;42.646;23.380;2023-05-09T14:02:20;4.23;;;3.17;;
8279;SDS011;8335;42.646;23.380;2023-05-09T14:04:48;4.47;;;3.20;;
8279;SDS011;8335;42.646;23.380;2023-05-09T14:07:15;6.47;;;3.60;;
8279;SDS011;8335;42.646;23.380;2023-05-09T14:09:43;6.93;;;3.40;;
8279;SDS011;8335;42.646;23.380;2023-05-09T14:12:11;8.37;;;3.73;;
8279;SDS011;8335;42.646;23.380;2023-05-09T14:14:38;4.27;;;3.40;;
8279;SDS011;8335;42.646;23.380;2023-05-09T14:17:05;5.97;;;3.23;;
8279;SDS011;8335;42.646;23.380;2023-05-09T14:19:32;7.03;;;3.60;;
8279;SDS011;8335;42.646;23.380;2023-05-09T14:21:59;5.73;;;3.73;;
8279;SDS011;8335;42.646;23.380;2023-05-09T14:24:26;6.63;;;3.70;;
8279;SDS011;8335;42.646;23.380;2023-05-09T14:26:56;3.33;;;3.03;;
8279;SDS011;8335;42.646;23.380;2023-05-09T14:29:23;6.10;;;3.60;;
8279;SDS011;8335;42.646;23.380;2023-05-09T14:31:49;4.90;;;3.23;;
8279;SDS011;8335;42.646;23.380;2023-05-09T14:34:16;6.00;;;2.90;;
8279;SDS011;8335;42.646;23.380;2023-05-09T14:36:43;3.97;;;2.67;;
8279;SDS011;8335;42.646;23.380;2023-05-09T14:39:10;2.93;;;2.63;;
8279;SDS011;8335;42.646;23.380;2023-05-09T14:41:37;3.33;;;2.53;;
8279;SDS011;8335;42.646;23.380;2023-05-09T14:44:05;3.40;;;2.40;;
8279;SDS011;8335;42.646;23.380;2023-05-09T14:46:32;6.33;;;2.60;;
8279;SDS011;8335;42.646;23.380;2023-05-09T14:49:00;3.57;;;2.30;;
8279;SDS011;8335;42.646;23.380;2023-05-09T14:51:28;4.83;;;2.40;;
8279;SDS011;8335;42.646;23.380;2023-05-09T14:53:55;4.40;;;2.30;;
8279;SDS011;8335;42.646;23.380;2023-05-09T14:56:22;3.80;;;2.30;;
8279;SDS011;8335;42.646;23.380;2023-05-09T14:58:54;3.10;;;2.40;;
8279;SDS011;8335;42.646;23.380;2023-05-09T15:01:23;4.50;;;2.50;;
8279;SDS011;8335;42.646;23.380;2023-05-09T15:03:50;3.20;;;2.40;;
8279;SDS011;8335;42.646;23.380;2023-05-09T15:06:17;3.77;;;2.60;;
8279;SDS011;8335;42.646;23.380;2023-05-09T15:08:44;2.70;;;2.20;;
8279;SDS011;8335;42.646;23.380;2023-05-09T15:11:11;5.87;;;2.50;;
8279;SDS011;8335;42.646;23.380;2023-05-09T15:13:38;4.70;;;2.30;;